sensor_id;sensor_type;location;lat;lon;timestamp;P1;durP1;ratioP1;P2;durP2;ratioP2
51525;SDS011;37611;51.794;21.590;2023-05-10T00:00:09;11.60;;;7.00;;
51525;SDS011;37611;51.794;21.590;2023-05-10T00:04:32;9.90;;;7.60;;
51525;SDS011;37611;51.794;21.590;2023-05-10T00:08:34;8.60;;;6.70;;
51525;SDS011;37611;51.794;21.590;2023-05-10T00:12:35;8.70;;;6.70;;
51525;SDS011;37611;51.794;21.590;2023-05-10T00:16:37;10.30;;;7.00;;
51525;SDS011;37611;51.794;21.590;2023-05-10T00:20:39;10.10;;;6.60;;
51525;SDS011;37611;51.794;21.590;2023-05-10T00:24:41;11.50;;;7.60;;
51525;SDS011;37611;51.794;21.590;2023-05-10T00:28:43;17.30;;;10.80;;
51525;SDS011;37611;51.794;21.590;2023-05-10T00:32:44;17.50;;;10.30;;
51525;SDS011;37611;51.794;21.590;2023-05-10T00:36:46;13.80;;;7.80;;
51525;SDS011;37611;51.794;21.590;2023-05-10T00:40:48;10.30;;;7.50;;
51525;SDS011;37611;51.794;21.590;2023-05-10T00:44:50;11.20;;;6.50;;
51525;SDS011;37611;51.794;21.590;2023-05-10T00:48:52;9.90;;;6.50;;
51525;SDS011;37611;51.794;21.590;2023-05-10T00:52:54;12.50;;;6.20;;
51525;SDS011;37611;51.794;21.590;2023-05-10T00:56:56;9.90;;;6.30;;
51525;SDS011;37611;51.794;21.590;2023-05-10T01:00:58;9.00;;;6.10;;
51525;SDS011;37611;51.794;21.590;2023-05-10T01:05:01;10.90;;;6.70;;
51525;SDS011;37611;51.794;21.590;2023-05-10T01:09:04;9.30;;;6.40;;
51525;SDS011;37611;51.794;21.590;2023-05-10T01:13:08;10.40;;;6.50;;
51525;SDS011;37611;51.794;21.590;2023-05-10T01:17:11;8.70;;;5.90;;
51525;SDS011;37611;51.794;21.590;2023-05-10T01:34:06;8.40;;;5.80;;
51525;SDS011;37611;51.794;21.590;2023-05-10T01:38:17;7.50;;;6.20;;
51525;SDS011;37611;51.794;21.590;2023-05-10T01:42:26;10.10;;;6.30;;
51525;SDS011;37611;51.794;21.590;2023-05-10T01:46:37;10.50;;;6.30;;
51525;SDS011;37611;51.794;21.590;2023-05-10T01:50:41;9.60;;;6.30;;
51525;SDS011;37611;51.794;21.590;2023-05-10T01:54:49;11.90;;;6.60;;
51525;SDS011;37611;51.794;21.590;2023-05-10T01:58:55;9.40;;;6.90;;
51525;SDS011;37611;51.794;21.590;2023-05-10T02:02:59;7.10;;;5.80;;
51525;SDS011;37611;51.794;21.590;2023-05-10T02:07:03;11.80;;;6.60;;
51525;SDS011;37611;51.794;21.590;2023-05-10T02:11:07;10.00;;;6.90;;
51525;SDS011;37611;51.794;21.590;2023-05-10T02:15:10;15.10;;;7.50;;
51525;SDS011;37611;51.794;21.590;2023-05-10T02:19:14;9.10;;;6.10;;
51525;SDS011;37611;51.794;21.590;2023-05-10T02:23:18;12.20;;;6.10;;
51525;SDS011;37611;51.794;21.590;2023-05-10T02:27:22;9.80;;;6.30;;
51525;SDS011;37611;51.794;21.590;2023-05-10T02:31:26;8.40;;;6.00;;
51525;SDS011;37611;51.794;21.590;2023-05-10T02:35:28;9.30;;;6.90;;
51525;SDS011;37611;51.794;21.590;2023-05-10T02:39:31;8.20;;;6.30;;
51525;SDS011;37611;51.794;21.590;2023-05-10T02:43:34;8.10;;;6.50;;
51525;SDS011;37611;51.794;21.590;2023-05-10T02:47:37;9.80;;;6.60;;
51525;SDS011;37611;51.794;21.590;2023-05-10T02:51:44;8.80;;;6.60;;
51525;SDS011;37611;51.794;21.590;2023-05-10T02:55:52;8.60;;;6.50;;
51525;SDS011;37611;51.794;21.590;2023-05-10T02:59:58;8.60;;;6.00;;
51525;SDS011;37611;51.794;21.590;2023-05-10T03:04:01;9.80;;;6.40;;
51525;SDS011;37611;51.794;21.590;2023-05-10T03:08:03;9.90;;;5.70;;
51525;SDS011;37611;51.794;21.590;2023-05-10T03:16:19;10.90;;;6.00;;
51525;SDS011;37611;51.794;21.590;2023-05-10T03:21:01;9.40;;;6.00;;
51525;SDS011;37611;51.794;21.590;2023-05-10T03:24:59;8.90;;;6.00;;
51525;SDS011;37611;51.794;21.590;2023-05-10T03:29:06;9.60;;;6.30;;
51525;SDS011;37611;51.794;21.590;2023-05-10T03:33:09;11.20;;;6.60;;
51525;SDS011;37611;51.794;21.590;2023-05-10T03:37:12;9.60;;;6.50;;
51525;SDS011;37611;51.794;21.590;2023-05-10T03:41:13;9.90;;;5.70;;
51525;SDS011;37611;51.794;21.590;2023-05-10T03:45:15;8.60;;;5.80;;
51525;SDS011;37611;51.794;21.590;2023-05-10T03:49:17;7.90;;;6.30;;
51525;SDS011;37611;51.794;21.590;2023-05-10T03:53:19;7.00;;;5.60;;
51525;SDS011;37611;51.794;21.590;2023-05-10T03:57:21;8.40;;;5.40;;
51525;SDS011;37611;51.794;21.590;2023-05-10T04:01:23;7.50;;;5.80;;
51525;SDS011;37611;51.794;21.590;2023-05-10T04:05:25;10.00;;;5.90;;
51525;SDS011;37611;51.794;21.590;2023-05-10T04:09:27;11.50;;;6.10;;
51525;SDS011;37611;51.794;21.590;2023-05-10T04:13:29;7.20;;;5.40;;
51525;SDS011;37611;51.794;21.590;2023-05-10T04:17:31;8.90;;;5.50;;
51525;SDS011;37611;51.794;21.590;2023-05-10T04:21:32;7.50;;;5.30;;
51525;SDS011;37611;51.794;21.590;2023-05-10T04:25:34;6.10;;;5.50;;
51525;SDS011;37611;51.794;21.590;2023-05-10T04:29:36;7.10;;;5.30;;
51525;SDS011;37611;51.794;21.590;2023-05-10T04:33:42;6.50;;;5.30;;
51525;SDS011;37611;51.794;21.590;2023-05-10T04:37:44;7.90;;;5.30;;
51525;SDS011;37611;51.794;21.590;2023-05-10T04:41:45;8.20;;;5.40;;
51525;SDS011;37611;51.794;21.590;2023-05-10T04:45:47;5.90;;;4.90;;
51525;SDS011;37611;51.794;21.590;2023-05-10T04:49:49;8.60;;;5.10;;
51525;SDS011;37611;51.794;21.590;2023-05-10T04:53:51;7.10;;;4.70;;
51525;SDS011;37611;51.794;21.590;2023-05-10T04:57:52;8.50;;;5.70;;
51525;SDS011;37611;51.794;21.590;2023-05-10T05:01:56;10.30;;;5.70;;
51525;SDS011;37611;51.794;21.590;2023-05-10T05:05:58;7.30;;;5.20;;
51525;SDS011;37611;51.794;21.590;2023-05-10T05:09:59;8.90;;;5.10;;
51525;SDS011;37611;51.794;21.590;2023-05-10T05:14:01;8.40;;;4.50;;
51525;SDS011;37611;51.794;21.590;2023-05-10T05:18:03;14.50;;;5.50;;
51525;SDS011;37611;51.794;21.590;2023-05-10T05:22:06;6.50;;;4.50;;
51525;SDS011;37611;51.794;21.590;2023-05-10T05:26:09;5.70;;;4.70;;
51525;SDS011;37611;51.794;21.590;2023-05-10T05:30:11;6.10;;;4.40;;
51525;SDS011;37611;51.794;21.590;2023-05-10T05:34:14;6.80;;;4.70;;
51525;SDS011;37611;51.794;21.590;2023-05-10T05:38:15;6.90;;;4.30;;
51525;SDS011;37611;51.794;21.590;2023-05-10T05:42:18;9.00;;;4.30;;
51525;SDS011;37611;51.794;21.590;2023-05-10T05:46:20;7.60;;;4.70;;
51525;SDS011;37611;51.794;21.590;2023-05-10T05:50:22;7.30;;;4.70;;
51525;SDS011;37611;51.794;21.590;2023-05-10T05:54:23;9.00;;;5.00;;
51525;SDS011;37611;51.794;21.590;2023-05-10T05:58:25;7.40;;;4.30;;
51525;SDS011;37611;51.794;21.590;2023-05-10T06:02:27;7.10;;;4.40;;
51525;SDS011;37611;51.794;21.590;2023-05-10T06:06:28;6.70;;;4.80;;
51525;SDS011;37611;51.794;21.590;2023-05-10T06:10:30;5.70;;;3.90;;
51525;SDS011;37611;51.794;21.590;2023-05-10T06:14:32;5.20;;;3.60;;
51525;SDS011;37611;51.794;21.590;2023-05-10T06:18:33;7.70;;;3.90;;
51525;SDS011;37611;51.794;21.590;2023-05-10T06:22:36;12.50;;;3.80;;
51525;SDS011;37611;51.794;21.590;2023-05-10T06:26:37;7.50;;;3.60;;
51525;SDS011;37611;51.794;21.590;2023-05-10T06:30:39;6.40;;;3.70;;
51525;SDS011;37611;51.794;21.590;2023-05-10T06:34:40;6.80;;;3.40;;
51525;SDS011;37611;51.794;21.590;2023-05-10T06:38:44;3.90;;;3.40;;
51525;SDS011;37611;51.794;21.590;2023-05-10T06:42:46;5.90;;;3.40;;
51525;SDS011;37611;51.794;21.590;2023-05-10T06:46:49;5.30;;;3.70;;
51525;SDS011;37611;51.794;21.590;2023-05-10T06:50:51;13.40;;;4.70;;
51525;SDS011;37611;51.794;21.590;2023-05-10T06:54:53;5.00;;;3.20;;
51525;SDS011;37611;51.794;21.590;2023-05-10T06:58:54;7.40;;;3.00;;
51525;SDS011;37611;51.794;21.590;2023-05-10T07:02:57;4.90;;;3.00;;
51525;SDS011;37611;51.794;21.590;2023-05-10T07:06:59;8.50;;;3.70;;
51525;SDS011;37611;51.794;21.590;2023-05-10T07:15:05;6.30;;;2.90;;
51525;SDS011;37611;51.794;21.590;2023-05-10T07:19:07;5.80;;;2.90;;
51525;SDS011;37611;51.794;21.590;2023-05-10T07:23:09;6.20;;;3.10;;
51525;SDS011;37611;51.794;21.590;2023-05-10T07:27:10;3.80;;;2.30;;
51525;SDS011;37611;51.794;21.590;2023-05-10T07:31:12;4.20;;;2.50;;
51525;SDS011;37611;51.794;21.590;2023-05-10T07:35:14;4.80;;;2.40;;
51525;SDS011;37611;51.794;21.590;2023-05-10T07:39:15;14.50;;;3.40;;
51525;SDS011;37611;51.794;21.590;2023-05-10T07:43:18;4.80;;;2.40;;
51525;SDS011;37611;51.794;21.590;2023-05-10T07:47:19;3.70;;;2.40;;
51525;SDS011;37611;51.794;21.590;2023-05-10T07:51:21;9.50;;;2.60;;
51525;SDS011;37611;51.794;21.590;2023-05-10T07:55:23;5.70;;;2.50;;
51525;SDS011;37611;51.794;21.590;2023-05-10T07:59:25;4.20;;;2.50;;
51525;SDS011;37611;51.794;21.590;2023-05-10T08:03:27;5.40;;;3.80;;
51525;SDS011;37611;51.794;21.590;2023-05-10T08:07:28;5.50;;;3.00;;
51525;SDS011;37611;51.794;21.590;2023-05-10T08:11:30;5.20;;;2.50;;
51525;SDS011;37611;51.794;21.590;2023-05-10T08:15:32;5.10;;;2.40;;
51525;SDS011;37611;51.794;21.590;2023-05-10T08:19:34;4.80;;;2.30;;
51525;SDS011;37611;51.794;21.590;2023-05-10T08:23:36;4.60;;;2.60;;
51525;SDS011;37611;51.794;21.590;2023-05-10T08:27:37;7.90;;;2.50;;
51525;SDS011;37611;51.794;21.590;2023-05-10T08:31:39;3.60;;;1.80;;
51525;SDS011;37611;51.794;21.590;2023-05-10T08:35:41;5.10;;;2.60;;
51525;SDS011;37611;51.794;21.590;2023-05-10T08:39:42;7.70;;;2.60;;
51525;SDS011;37611;51.794;21.590;2023-05-10T08:43:44;3.70;;;2.10;;
51525;SDS011;37611;51.794;21.590;2023-05-10T08:47:47;6.40;;;2.80;;
51525;SDS011;37611;51.794;21.590;2023-05-10T08:51:53;6.40;;;2.50;;
51525;SDS011;37611;51.794;21.590;2023-05-10T08:55:57;6.00;;;2.00;;
51525;SDS011;37611;51.794;21.590;2023-05-10T09:00:00;7.90;;;2.40;;
51525;SDS011;37611;51.794;21.590;2023-05-10T09:04:02;3.20;;;2.30;;
51525;SDS011;37611;51.794;21.590;2023-05-10T09:08:05;3.40;;;2.10;;
51525;SDS011;37611;51.794;21.590;2023-05-10T09:12:09;6.20;;;2.70;;
51525;SDS011;37611;51.794;21.590;2023-05-10T09:16:12;5.70;;;2.40;;
51525;SDS011;37611;51.794;21.590;2023-05-10T09:20:14;3.60;;;2.20;;
51525;SDS011;37611;51.794;21.590;2023-05-10T09:24:16;3.70;;;2.30;;
51525;SDS011;37611;51.794;21.590;2023-05-10T09:28:18;7.00;;;2.70;;
51525;SDS011;37611;51.794;21.590;2023-05-10T09:32:20;6.50;;;2.40;;
51525;SDS011;37611;51.794;21.590;2023-05-10T09:36:21;19.50;;;3.10;;
51525;SDS011;37611;51.794;21.590;2023-05-10T09:40:24;4.50;;;2.30;;
51525;SDS011;37611;51.794;21.590;2023-05-10T09:44:28;8.10;;;2.50;;
51525;SDS011;37611;51.794;21.590;2023-05-10T09:48:29;5.50;;;2.70;;
51525;SDS011;37611;51.794;21.590;2023-05-10T09:52:45;6.00;;;2.90;;
51525;SDS011;37611;51.794;21.590;2023-05-10T09:56:48;5.10;;;2.50;;
51525;SDS011;37611;51.794;21.590;2023-05-10T10:00:50;7.70;;;3.20;;
51525;SDS011;37611;51.794;21.590;2023-05-10T10:04:56;12.20;;;2.60;;
51525;SDS011;37611;51.794;21.590;2023-05-10T10:08:57;4.80;;;2.20;;
51525;SDS011;37611;51.794;21.590;2023-05-10T10:12:59;5.50;;;3.20;;
51525;SDS011;37611;51.794;21.590;2023-05-10T10:17:01;7.80;;;2.30;;
51525;SDS011;37611;51.794;21.590;2023-05-10T10:21:03;4.20;;;2.50;;
51525;SDS011;37611;51.794;21.590;2023-05-10T10:25:05;13.10;;;2.70;;
51525;SDS011;37611;51.794;21.590;2023-05-10T10:37:14;15.20;;;4.70;;
51525;SDS011;37611;51.794;21.590;2023-05-10T10:41:29;10.10;;;5.20;;
51525;SDS011;37611;51.794;21.590;2023-05-10T10:45:33;8.10;;;2.90;;
51525;SDS011;37611;51.794;21.590;2023-05-10T10:53:43;7.00;;;2.30;;
51525;SDS011;37611;51.794;21.590;2023-05-10T11:02:02;4.00;;;2.30;;
51525;SDS011;37611;51.794;21.590;2023-05-10T11:06:04;7.90;;;2.40;;
51525;SDS011;37611;51.794;21.590;2023-05-10T11:10:06;3.50;;;2.10;;
51525;SDS011;37611;51.794;21.590;2023-05-10T11:14:08;5.60;;;2.40;;
51525;SDS011;37611;51.794;21.590;2023-05-10T11:18:19;6.20;;;2.10;;
51525;SDS011;37611;51.794;21.590;2023-05-10T11:22:22;4.40;;;2.00;;
51525;SDS011;37611;51.794;21.590;2023-05-10T11:26:31;8.70;;;2.60;;
51525;SDS011;37611;51.794;21.590;2023-05-10T11:30:35;6.30;;;2.40;;
51525;SDS011;37611;51.794;21.590;2023-05-10T11:34:38;3.40;;;2.50;;
51525;SDS011;37611;51.794;21.590;2023-05-10T11:38:39;4.80;;;1.70;;
51525;SDS011;37611;51.794;21.590;2023-05-10T11:42:41;7.50;;;4.00;;
51525;SDS011;37611;51.794;21.590;2023-05-10T11:46:43;8.00;;;2.00;;
51525;SDS011;37611;51.794;21.590;2023-05-10T11:50:45;7.00;;;2.10;;
51525;SDS011;37611;51.794;21.590;2023-05-10T11:54:51;3.50;;;1.90;;
51525;SDS011;37611;51.794;21.590;2023-05-10T11:58:54;6.00;;;2.10;;
51525;SDS011;37611;51.794;21.590;2023-05-10T12:02:57;5.20;;;2.10;;
51525;SDS011;37611;51.794;21.590;2023-05-10T12:06:59;8.90;;;2.40;;
51525;SDS011;37611;51.794;21.590;2023-05-10T12:11:05;4.80;;;1.80;;
51525;SDS011;37611;51.794;21.590;2023-05-10T12:19:24;3.80;;;1.90;;
51525;SDS011;37611;51.794;21.590;2023-05-10T12:23:25;8.10;;;2.50;;
51525;SDS011;37611;51.794;21.590;2023-05-10T12:27:31;6.50;;;2.00;;
51525;SDS011;37611;51.794;21.590;2023-05-10T12:31:43;4.40;;;2.50;;
51525;SDS011;37611;51.794;21.590;2023-05-10T12:35:58;5.50;;;2.40;;
51525;SDS011;37611;51.794;21.590;2023-05-10T12:40:00;5.00;;;2.50;;
51525;SDS011;37611;51.794;21.590;2023-05-10T12:44:02;5.00;;;2.30;;
51525;SDS011;37611;51.794;21.590;2023-05-10T12:48:04;2.90;;;2.40;;
51525;SDS011;37611;51.794;21.590;2023-05-10T12:52:05;4.80;;;2.30;;
51525;SDS011;37611;51.794;21.590;2023-05-10T12:56:07;3.50;;;2.20;;
51525;SDS011;37611;51.794;21.590;2023-05-10T13:00:09;3.80;;;2.20;;
51525;SDS011;37611;51.794;21.590;2023-05-10T13:04:11;5.30;;;2.10;;
51525;SDS011;37611;51.794;21.590;2023-05-10T13:08:13;5.50;;;2.60;;
51525;SDS011;37611;51.794;21.590;2023-05-10T13:12:14;5.10;;;2.40;;
51525;SDS011;37611;51.794;21.590;2023-05-10T13:16:16;3.80;;;2.10;;
51525;SDS011;37611;51.794;21.590;2023-05-10T13:20:18;4.50;;;2.10;;
51525;SDS011;37611;51.794;21.590;2023-05-10T13:24:20;5.90;;;3.20;;
51525;SDS011;37611;51.794;21.590;2023-05-10T13:28:22;5.70;;;2.30;;
51525;SDS011;37611;51.794;21.590;2023-05-10T13:32:24;5.30;;;1.80;;
51525;SDS011;37611;51.794;21.590;2023-05-10T13:36:26;6.30;;;4.10;;
51525;SDS011;37611;51.794;21.590;2023-05-10T13:40:29;6.30;;;2.60;;
51525;SDS011;37611;51.794;21.590;2023-05-10T13:44:30;5.30;;;2.00;;
51525;SDS011;37611;51.794;21.590;2023-05-10T13:48:32;4.30;;;2.50;;
51525;SDS011;37611;51.794;21.590;2023-05-10T13:52:34;8.40;;;3.00;;
51525;SDS011;37611;51.794;21.590;2023-05-10T13:56:36;6.90;;;2.40;;
51525;SDS011;37611;51.794;21.590;2023-05-10T14:00:38;4.70;;;3.10;;
51525;SDS011;37611;51.794;21.590;2023-05-10T14:04:40;15.80;;;9.60;;
51525;SDS011;37611;51.794;21.590;2023-05-10T14:08:42;7.30;;;3.10;;
51525;SDS011;37611;51.794;21.590;2023-05-10T14:12:43;8.20;;;2.90;;
51525;SDS011;37611;51.794;21.590;2023-05-10T14:16:45;5.90;;;3.50;;
51525;SDS011;37611;51.794;21.590;2023-05-10T14:20:47;4.90;;;3.50;;
51525;SDS011;37611;51.794;21.590;2023-05-10T14:24:49;2.60;;;2.00;;
51525;SDS011;37611;51.794;21.590;2023-05-10T14:28:51;3.30;;;2.20;;
51525;SDS011;37611;51.794;21.590;2023-05-10T14:32:53;5.70;;;3.70;;
51525;SDS011;37611;51.794;21.590;2023-05-10T14:36:55;3.70;;;1.90;;
51525;SDS011;37611;51.794;21.590;2023-05-10T14:40:57;9.40;;;2.30;;
51525;SDS011;37611;51.794;21.590;2023-05-10T14:44:59;3.40;;;1.80;;
51525;SDS011;37611;51.794;21.590;2023-05-10T14:49:01;4.90;;;3.20;;
51525;SDS011;37611;51.794;21.590;2023-05-10T14:53:03;3.80;;;2.00;;
51525;SDS011;37611;51.794;21.590;2023-05-10T14:57:04;3.60;;;2.00;;
51525;SDS011;37611;51.794;21.590;2023-05-10T15:01:06;3.70;;;2.20;;
51525;SDS011;37611;51.794;21.590;2023-05-10T15:05:08;2.30;;;1.90;;
51525;SDS011;37611;51.794;21.590;2023-05-10T15:09:10;7.90;;;3.10;;
51525;SDS011;37611;51.794;21.590;2023-05-10T15:13:11;5.70;;;3.70;;
51525;SDS011;37611;51.794;21.590;2023-05-10T15:17:13;5.30;;;2.10;;
51525;SDS011;37611;51.794;21.590;2023-05-10T15:21:15;6.40;;;2.90;;
51525;SDS011;37611;51.794;21.590;2023-05-10T15:25:17;5.80;;;2.70;;
51525;SDS011;37611;51.794;21.590;2023-05-10T15:29:18;5.50;;;3.20;;
51525;SDS011;37611;51.794;21.590;2023-05-10T15:33:21;8.10;;;4.10;;
51525;SDS011;37611;51.794;21.590;2023-05-10T15:37:23;3.10;;;2.80;;
51525;SDS011;37611;51.794;21.590;2023-05-10T15:41:26;4.10;;;2.60;;
51525;SDS011;37611;51.794;21.590;2023-05-10T15:45:28;4.80;;;2.20;;
51525;SDS011;37611;51.794;21.590;2023-05-10T15:49:29;5.10;;;2.10;;
51525;SDS011;37611;51.794;21.590;2023-05-10T15:53:31;2.90;;;2.60;;
51525;SDS011;37611;51.794;21.590;2023-05-10T15:57:33;4.00;;;2.90;;
51525;SDS011;37611;51.794;21.590;2023-05-10T16:01:34;5.30;;;1.90;;
51525;SDS011;37611;51.794;21.590;2023-05-10T16:05:36;4.70;;;3.10;;
51525;SDS011;37611;51.794;21.590;2023-05-10T16:09:38;5.00;;;3.30;;
51525;SDS011;37611;51.794;21.590;2023-05-10T16:13:40;7.40;;;3.50;;
51525;SDS011;37611;51.794;21.590;2023-05-10T16:17:41;7.20;;;3.50;;
51525;SDS011;37611;51.794;21.590;2023-05-10T16:21:43;5.80;;;3.90;;
51525;SDS011;37611;51.794;21.590;2023-05-10T16:25:45;10.00;;;5.50;;
51525;SDS011;37611;51.794;21.590;2023-05-10T16:29:47;9.90;;;4.40;;
51525;SDS011;37611;51.794;21.590;2023-05-10T16:33:49;8.90;;;7.30;;
51525;SDS011;37611;51.794;21.590;2023-05-10T16:37:50;10.30;;;6.90;;
51525;SDS011;37611;51.794;21.590;2023-05-10T16:41:52;10.00;;;7.00;;
51525;SDS011;37611;51.794;21.590;2023-05-10T16:45:54;7.90;;;4.20;;
51525;SDS011;37611;51.794;21.590;2023-05-10T16:49:55;16.10;;;8.30;;
51525;SDS011;37611;51.794;21.590;2023-05-10T16:53:57;19.40;;;14.30;;
51525;SDS011;37611;51.794;21.590;2023-05-10T16:57:59;10.60;;;7.40;;
51525;SDS011;37611;51.794;21.590;2023-05-10T17:02:01;10.20;;;5.00;;
51525;SDS011;37611;51.794;21.590;2023-05-10T17:06:04;18.30;;;10.80;;
51525;SDS011;37611;51.794;21.590;2023-05-10T17:10:06;7.40;;;4.40;;
51525;SDS011;37611;51.794;21.590;2023-05-10T17:14:09;13.90;;;7.60;;
51525;SDS011;37611;51.794;21.590;2023-05-10T17:18:10;10.40;;;6.10;;
51525;SDS011;37611;51.794;21.590;2023-05-10T17:22:12;9.50;;;6.40;;
51525;SDS011;37611;51.794;21.590;2023-05-10T17:26:14;12.10;;;6.80;;
51525;SDS011;37611;51.794;21.590;2023-05-10T17:30:17;11.90;;;6.20;;
51525;SDS011;37611;51.794;21.590;2023-05-10T17:34:24;9.90;;;6.20;;
51525;SDS011;37611;51.794;21.590;2023-05-10T17:38:26;12.20;;;7.50;;
51525;SDS011;37611;51.794;21.590;2023-05-10T17:42:27;10.20;;;6.80;;
51525;SDS011;37611;51.794;21.590;2023-05-10T17:46:29;8.10;;;5.60;;
51525;SDS011;37611;51.794;21.590;2023-05-10T17:50:31;9.80;;;8.00;;
51525;SDS011;37611;51.794;21.590;2023-05-10T17:54:33;28.00;;;23.20;;
51525;SDS011;37611;51.794;21.590;2023-05-10T17:58:35;30.40;;;26.90;;
51525;SDS011;37611;51.794;21.590;2023-05-10T18:02:38;37.70;;;32.00;;
51525;SDS011;37611;51.794;21.590;2023-05-10T18:06:40;22.30;;;20.00;;
51525;SDS011;37611;51.794;21.590;2023-05-10T18:10:42;66.30;;;45.20;;
51525;SDS011;37611;51.794;21.590;2023-05-10T18:14:43;35.60;;;25.80;;
51525;SDS011;37611;51.794;21.590;2023-05-10T18:18:45;41.30;;;33.10;;
51525;SDS011;37611;51.794;21.590;2023-05-10T18:22:47;33.80;;;28.40;;
51525;SDS011;37611;51.794;21.590;2023-05-10T18:26:49;36.30;;;27.90;;
51525;SDS011;37611;51.794;21.590;2023-05-10T18:30:50;71.50;;;45.20;;
51525;SDS011;37611;51.794;21.590;2023-05-10T18:34:52;60.80;;;41.40;;
51525;SDS011;37611;51.794;21.590;2023-05-10T18:38:54;72.90;;;50.20;;
51525;SDS011;37611;51.794;21.590;2023-05-10T18:42:55;76.80;;;47.40;;
51525;SDS011;37611;51.794;21.590;2023-05-10T18:46:57;23.70;;;17.30;;
51525;SDS011;37611;51.794;21.590;2023-05-10T18:50:59;24.60;;;19.50;;
51525;SDS011;37611;51.794;21.590;2023-05-10T18:55:01;52.60;;;40.00;;
51525;SDS011;37611;51.794;21.590;2023-05-10T18:59:03;130.50;;;77.20;;
51525;SDS011;37611;51.794;21.590;2023-05-10T19:03:05;202.40;;;104.70;;
51525;SDS011;37611;51.794;21.590;2023-05-10T19:07:07;148.00;;;89.40;;
51525;SDS011;37611;51.794;21.590;2023-05-10T19:11:08;94.50;;;56.10;;
51525;SDS011;37611;51.794;21.590;2023-05-10T19:15:10;72.70;;;42.60;;
51525;SDS011;37611;51.794;21.590;2023-05-10T19:19:12;181.20;;;107.90;;
51525;SDS011;37611;51.794;21.590;2023-05-10T19:23:14;83.90;;;52.70;;
51525;SDS011;37611;51.794;21.590;2023-05-10T19:27:15;41.80;;;29.50;;
51525;SDS011;37611;51.794;21.590;2023-05-10T19:31:17;26.80;;;19.50;;
51525;SDS011;37611;51.794;21.590;2023-05-10T19:35:22;24.60;;;17.50;;
51525;SDS011;37611;51.794;21.590;2023-05-10T19:39:24;13.80;;;11.60;;
51525;SDS011;37611;51.794;21.590;2023-05-10T19:43:26;14.80;;;12.40;;
51525;SDS011;37611;51.794;21.590;2023-05-10T19:47:29;22.80;;;18.20;;
51525;SDS011;37611;51.794;21.590;2023-05-10T19:51:31;16.30;;;14.60;;
51525;SDS011;37611;51.794;21.590;2023-05-10T19:55:33;16.20;;;14.50;;
51525;SDS011;37611;51.794;21.590;2023-05-10T19:59:36;15.90;;;11.50;;
51525;SDS011;37611;51.794;21.590;2023-05-10T20:03:38;14.70;;;11.90;;
51525;SDS011;37611;51.794;21.590;2023-05-10T20:07:40;17.30;;;11.30;;
51525;SDS011;37611;51.794;21.590;2023-05-10T20:11:42;16.30;;;11.20;;
51525;SDS011;37611;51.794;21.590;2023-05-10T20:15:44;15.70;;;11.00;;
51525;SDS011;37611;51.794;21.590;2023-05-10T20:19:46;14.40;;;9.60;;
51525;SDS011;37611;51.794;21.590;2023-05-10T20:23:48;12.80;;;8.80;;
51525;SDS011;37611;51.794;21.590;2023-05-10T20:27:50;12.00;;;8.40;;
51525;SDS011;37611;51.794;21.590;2023-05-10T20:31:51;9.20;;;6.60;;
51525;SDS011;37611;51.794;21.590;2023-05-10T20:35:53;11.50;;;9.30;;
51525;SDS011;37611;51.794;21.590;2023-05-10T20:39:55;13.60;;;8.80;;
51525;SDS011;37611;51.794;21.590;2023-05-10T20:43:57;12.10;;;7.90;;
51525;SDS011;37611;51.794;21.590;2023-05-10T20:47:59;10.00;;;7.30;;
51525;SDS011;37611;51.794;21.590;2023-05-10T20:52:00;12.40;;;8.40;;
51525;SDS011;37611;51.794;21.590;2023-05-10T20:56:02;9.10;;;6.50;;
51525;SDS011;37611;51.794;21.590;2023-05-10T21:00:04;10.20;;;5.80;;
51525;SDS011;37611;51.794;21.590;2023-05-10T21:04:06;7.80;;;5.50;;
51525;SDS011;37611;51.794;21.590;2023-05-10T21:08:08;8.50;;;6.70;;
51525;SDS011;37611;51.794;21.590;2023-05-10T21:12:10;12.70;;;9.00;;
51525;SDS011;37611;51.794;21.590;2023-05-10T21:16:11;10.50;;;7.50;;
51525;SDS011;37611;51.794;21.590;2023-05-10T21:20:13;8.10;;;6.30;;
51525;SDS011;37611;51.794;21.590;2023-05-10T21:24:15;9.60;;;6.70;;
51525;SDS011;37611;51.794;21.590;2023-05-10T21:28:17;10.10;;;5.50;;
51525;SDS011;37611;51.794;21.590;2023-05-10T21:32:19;8.50;;;6.10;;
51525;SDS011;37611;51.794;21.590;2023-05-10T21:36:20;14.10;;;7.50;;
51525;SDS011;37611;51.794;21.590;2023-05-10T21:40:23;9.80;;;5.60;;
51525;SDS011;37611;51.794;21.590;2023-05-10T21:44:24;11.30;;;5.20;;
51525;SDS011;37611;51.794;21.590;2023-05-10T21:48:26;6.70;;;4.70;;
51525;SDS011;37611;51.794;21.590;2023-05-10T21:52:28;9.00;;;5.60;;
51525;SDS011;37611;51.794;21.590;2023-05-10T21:56:29;10.80;;;5.40;;
51525;SDS011;37611;51.794;21.590;2023-05-10T22:00:31;8.90;;;5.10;;
51525;SDS011;37611;51.794;21.590;2023-05-10T22:04:33;8.50;;;4.80;;
51525;SDS011;37611;51.794;21.590;2023-05-10T22:08:35;7.20;;;5.20;;
51525;SDS011;37611;51.794;21.590;2023-05-10T22:12:37;8.90;;;5.70;;
51525;SDS011;37611;51.794;21.590;2023-05-10T22:16:38;8.40;;;5.50;;
51525;SDS011;37611;51.794;21.590;2023-05-10T22:20:42;8.00;;;6.10;;
51525;SDS011;37611;51.794;21.590;2023-05-10T22:24:45;7.10;;;4.30;;
51525;SDS011;37611;51.794;21.590;2023-05-10T22:28:47;6.50;;;4.50;;
51525;SDS011;37611;51.794;21.590;2023-05-10T22:32:49;10.00;;;4.50;;
51525;SDS011;37611;51.794;21.590;2023-05-10T22:36:50;7.10;;;5.00;;
51525;SDS011;37611;51.794;21.590;2023-05-10T22:40:53;6.90;;;5.40;;
51525;SDS011;37611;51.794;21.590;2023-05-10T22:44:54;9.10;;;5.60;;
51525;SDS011;37611;51.794;21.590;2023-05-10T22:48:57;7.50;;;5.20;;
51525;SDS011;37611;51.794;21.590;2023-05-10T22:52:59;10.90;;;6.50;;
51525;SDS011;37611;51.794;21.590;2023-05-10T22:57:01;8.60;;;6.20;;
51525;SDS011;37611;51.794;21.590;2023-05-10T23:01:03;8.00;;;5.70;;
51525;SDS011;37611;51.794;21.590;2023-05-10T23:05:05;7.60;;;4.30;;
51525;SDS011;37611;51.794;21.590;2023-05-10T23:09:07;4.90;;;3.60;;
51525;SDS011;37611;51.794;21.590;2023-05-10T23:13:09;9.20;;;4.40;;
51525;SDS011;37611;51.794;21.590;2023-05-10T23:17:11;7.30;;;4.00;;
51525;SDS011;37611;51.794;21.590;2023-05-10T23:21:13;6.20;;;4.20;;
51525;SDS011;37611;51.794;21.590;2023-05-10T23:25:14;5.70;;;4.10;;
51525;SDS011;37611;51.794;21.590;2023-05-10T23:29:17;5.60;;;3.40;;
51525;SDS011;37611;51.794;21.590;2023-05-10T23:33:19;6.30;;;3.70;;
51525;SDS011;37611;51.794;21.590;2023-05-10T23:37:20;7.10;;;3.60;;
51525;SDS011;37611;51.794;21.590;2023-05-10T23:41:22;4.50;;;3.60;;
51525;SDS011;37611;51.794;21.590;2023-05-10T23:45:26;4.80;;;3.10;;
51525;SDS011;37611;51.794;21.590;2023-05-10T23:49:28;5.30;;;3.70;;
51525;SDS011;37611;51.794;21.590;2023-05-10T23:53:30;6.30;;;3.80;;
51525;SDS011;37611;51.794;21.590;2023-05-10T23:57:32;6.70;;;4.00;;
